sensor_id;sensor_type;location;lat;lon;timestamp;P1;durP1;ratioP1;P2;durP2;ratioP2
74512;SDS011;62992;52.052;8.550;2022-12-07T00:00:18;24.83;;;14.52;;
74512;SDS011;62992;52.052;8.550;2022-12-07T00:03:03;25.17;;;13.95;;
74512;SDS011;62992;52.052;8.550;2022-12-07T00:05:47;27.67;;;15.10;;
74512;SDS011;62992;52.052;8.550;2022-12-07T00:08:31;26.17;;;14.30;;
74512;SDS011;62992;52.052;8.550;2022-12-07T00:11:17;28.20;;;14.77;;
74512;SDS011;62992;52.052;8.550;2022-12-07T00:14:04;28.08;;;14.90;;
74512;SDS011;62992;52.052;8.550;2022-12-07T00:16:50;28.08;;;14.57;;
74512;SDS011;62992;52.052;8.550;2022-12-07T00:19:35;31.42;;;16.48;;
74512;SDS011;62992;52.052;8.550;2022-12-07T00:22:19;29.45;;;15.77;;
74512;SDS011;62992;52.052;8.550;2022-12-07T00:25:03;27.88;;;15.07;;
74512;SDS011;62992;52.052;8.550;2022-12-07T00:27:47;29.83;;;15.73;;
74512;SDS011;62992;52.052;8.550;2022-12-07T00:30:31;29.95;;;15.63;;
74512;SDS011;62992;52.052;8.550;2022-12-07T00:33:15;28.95;;;14.95;;
74512;SDS011;62992;52.052;8.550;2022-12-07T00:36:00;26.33;;;14.77;;
74512;SDS011;62992;52.052;8.550;2022-12-07T00:38:45;27.40;;;14.23;;
74512;SDS011;62992;52.052;8.550;2022-12-07T00:41:30;25.48;;;13.95;;
74512;SDS011;62992;52.052;8.550;2022-12-07T00:44:14;24.73;;;13.93;;
74512;SDS011;62992;52.052;8.550;2022-12-07T00:46:58;27.95;;;14.52;;
74512;SDS011;62992;52.052;8.550;2022-12-07T00:49:42;33.10;;;14.55;;
74512;SDS011;62992;52.052;8.550;2022-12-07T00:52:26;30.38;;;14.27;;
74512;SDS011;62992;52.052;8.550;2022-12-07T00:55:10;25.10;;;13.73;;
74512;SDS011;62992;52.052;8.550;2022-12-07T00:57:54;27.80;;;13.73;;
74512;SDS011;62992;52.052;8.550;2022-12-07T01:00:39;26.42;;;12.48;;
74512;SDS011;62992;52.052;8.550;2022-12-07T01:06:08;27.63;;;12.70;;
74512;SDS011;62992;52.052;8.550;2022-12-07T01:08:53;23.83;;;11.93;;
74512;SDS011;62992;52.052;8.550;2022-12-07T01:11:37;24.00;;;12.65;;
74512;SDS011;62992;52.052;8.550;2022-12-07T01:14:22;22.02;;;12.40;;
74512;SDS011;62992;52.052;8.550;2022-12-07T01:17:06;24.05;;;12.43;;
74512;SDS011;62992;52.052;8.550;2022-12-07T01:19:50;28.73;;;12.77;;
74512;SDS011;62992;52.052;8.550;2022-12-07T01:22:36;25.60;;;12.90;;
74512;SDS011;62992;52.052;8.550;2022-12-07T01:25:21;26.55;;;12.70;;
74512;SDS011;62992;52.052;8.550;2022-12-07T01:28:05;25.02;;;13.20;;
74512;SDS011;62992;52.052;8.550;2022-12-07T01:31:03;25.42;;;12.30;;
74512;SDS011;62992;52.052;8.550;2022-12-07T01:33:51;24.52;;;13.00;;
74512;SDS011;62992;52.052;8.550;2022-12-07T01:36:36;23.58;;;12.35;;
74512;SDS011;62992;52.052;8.550;2022-12-07T01:39:20;24.20;;;12.13;;
74512;SDS011;62992;52.052;8.550;2022-12-07T01:42:04;23.35;;;11.43;;
74512;SDS011;62992;52.052;8.550;2022-12-07T01:48:00;20.73;;;10.68;;
74512;SDS011;62992;52.052;8.550;2022-12-07T01:50:46;18.02;;;9.93;;
74512;SDS011;62992;52.052;8.550;2022-12-07T01:53:32;23.52;;;11.73;;
74512;SDS011;62992;52.052;8.550;2022-12-07T01:56:20;21.35;;;10.82;;
74512;SDS011;62992;52.052;8.550;2022-12-07T01:59:08;21.05;;;11.18;;
74512;SDS011;62992;52.052;8.550;2022-12-07T02:01:53;19.60;;;9.88;;
74512;SDS011;62992;52.052;8.550;2022-12-07T02:04:39;20.10;;;10.68;;
74512;SDS011;62992;52.052;8.550;2022-12-07T02:07:23;20.73;;;10.80;;
74512;SDS011;62992;52.052;8.550;2022-12-07T02:10:12;18.67;;;9.98;;
74512;SDS011;62992;52.052;8.550;2022-12-07T02:13:45;20.33;;;10.48;;
74512;SDS011;62992;52.052;8.550;2022-12-07T02:25:15;17.95;;;9.32;;
74512;SDS011;62992;52.052;8.550;2022-12-07T02:31:14;16.08;;;8.68;;
74512;SDS011;62992;52.052;8.550;2022-12-07T02:34:06;14.73;;;8.18;;
74512;SDS011;62992;52.052;8.550;2022-12-07T02:36:56;15.00;;;8.35;;
74512;SDS011;62992;52.052;8.550;2022-12-07T02:39:48;16.92;;;8.75;;
74512;SDS011;62992;52.052;8.550;2022-12-07T02:42:49;17.65;;;8.60;;
74512;SDS011;62992;52.052;8.550;2022-12-07T02:45:39;16.67;;;8.57;;
74512;SDS011;62992;52.052;8.550;2022-12-07T02:48:25;15.48;;;7.60;;
74512;SDS011;62992;52.052;8.550;2022-12-07T02:51:11;13.63;;;7.60;;
74512;SDS011;62992;52.052;8.550;2022-12-07T02:53:55;12.80;;;7.47;;
74512;SDS011;62992;52.052;8.550;2022-12-07T03:05:50;14.18;;;7.75;;
74512;SDS011;62992;52.052;8.550;2022-12-07T03:11:48;14.07;;;7.50;;
74512;SDS011;62992;52.052;8.550;2022-12-07T03:14:41;13.50;;;6.70;;
74512;SDS011;62992;52.052;8.550;2022-12-07T03:17:41;15.75;;;7.03;;
74512;SDS011;62992;52.052;8.550;2022-12-07T03:20:27;16.55;;;6.50;;
74512;SDS011;62992;52.052;8.550;2022-12-07T03:23:15;17.23;;;6.47;;
74512;SDS011;62992;52.052;8.550;2022-12-07T03:26:02;11.13;;;6.35;;
74512;SDS011;62992;52.052;8.550;2022-12-07T03:28:51;11.30;;;5.70;;
74512;SDS011;62992;52.052;8.550;2022-12-07T03:31:40;10.35;;;5.78;;
74512;SDS011;62992;52.052;8.550;2022-12-07T03:34:33;14.20;;;6.28;;
74512;SDS011;62992;52.052;8.550;2022-12-07T03:37:29;10.27;;;6.35;;
74512;SDS011;62992;52.052;8.550;2022-12-07T03:40:35;11.20;;;5.63;;
74512;SDS011;62992;52.052;8.550;2022-12-07T03:43:24;12.43;;;6.27;;
74512;SDS011;62992;52.052;8.550;2022-12-07T03:46:17;10.68;;;5.50;;
74512;SDS011;62992;52.052;8.550;2022-12-07T03:49:22;10.13;;;5.85;;
74512;SDS011;62992;52.052;8.550;2022-12-07T03:52:24;9.50;;;5.60;;
74512;SDS011;62992;52.052;8.550;2022-12-07T03:58:19;10.60;;;5.70;;
74512;SDS011;62992;52.052;8.550;2022-12-07T04:01:05;11.75;;;6.10;;
74512;SDS011;62992;52.052;8.550;2022-12-07T04:03:49;9.73;;;5.43;;
74512;SDS011;62992;52.052;8.550;2022-12-07T04:06:33;14.07;;;5.80;;
74512;SDS011;62992;52.052;8.550;2022-12-07T04:09:17;13.13;;;5.97;;
74512;SDS011;62992;52.052;8.550;2022-12-07T04:12:02;16.40;;;5.63;;
74512;SDS011;62992;52.052;8.550;2022-12-07T04:14:45;12.13;;;5.95;;
74512;SDS011;62992;52.052;8.550;2022-12-07T04:17:30;10.77;;;5.22;;
74512;SDS011;62992;52.052;8.550;2022-12-07T04:20:14;9.80;;;5.53;;
74512;SDS011;62992;52.052;8.550;2022-12-07T04:22:58;11.43;;;5.15;;
74512;SDS011;62992;52.052;8.550;2022-12-07T04:25:42;11.43;;;5.40;;
74512;SDS011;62992;52.052;8.550;2022-12-07T04:28:26;11.75;;;6.15;;
74512;SDS011;62992;52.052;8.550;2022-12-07T04:31:10;11.43;;;5.47;;
74512;SDS011;62992;52.052;8.550;2022-12-07T04:33:54;8.98;;;5.13;;
74512;SDS011;62992;52.052;8.550;2022-12-07T04:36:38;19.35;;;5.60;;
74512;SDS011;62992;52.052;8.550;2022-12-07T04:39:32;14.20;;;6.03;;
74512;SDS011;62992;52.052;8.550;2022-12-07T04:42:17;9.48;;;5.45;;
74512;SDS011;62992;52.052;8.550;2022-12-07T04:45:01;13.38;;;5.95;;
74512;SDS011;62992;52.052;8.550;2022-12-07T04:47:45;11.32;;;5.63;;
74512;SDS011;62992;52.052;8.550;2022-12-07T04:50:29;7.68;;;5.05;;
74512;SDS011;62992;52.052;8.550;2022-12-07T04:53:13;11.95;;;5.55;;
74512;SDS011;62992;52.052;8.550;2022-12-07T04:55:57;11.15;;;5.40;;
74512;SDS011;62992;52.052;8.550;2022-12-07T04:58:42;11.93;;;5.00;;
74512;SDS011;62992;52.052;8.550;2022-12-07T05:01:27;11.63;;;4.70;;
74512;SDS011;62992;52.052;8.550;2022-12-07T05:04:12;9.98;;;5.30;;
74512;SDS011;62992;52.052;8.550;2022-12-07T05:06:56;11.27;;;5.93;;
74512;SDS011;62992;52.052;8.550;2022-12-07T05:09:40;12.10;;;4.88;;
74512;SDS011;62992;52.052;8.550;2022-12-07T05:12:24;13.63;;;5.35;;
74512;SDS011;62992;52.052;8.550;2022-12-07T05:15:08;9.30;;;5.40;;
74512;SDS011;62992;52.052;8.550;2022-12-07T05:17:53;12.00;;;5.03;;
74512;SDS011;62992;52.052;8.550;2022-12-07T05:20:37;11.88;;;4.90;;
74512;SDS011;62992;52.052;8.550;2022-12-07T05:23:22;8.73;;;5.30;;
74512;SDS011;62992;52.052;8.550;2022-12-07T05:26:06;10.10;;;5.15;;
74512;SDS011;62992;52.052;8.550;2022-12-07T05:28:51;9.25;;;5.57;;
74512;SDS011;62992;52.052;8.550;2022-12-07T05:31:36;10.80;;;5.03;;
74512;SDS011;62992;52.052;8.550;2022-12-07T05:34:20;12.57;;;6.03;;
74512;SDS011;62992;52.052;8.550;2022-12-07T05:37:04;11.10;;;4.60;;
74512;SDS011;62992;52.052;8.550;2022-12-07T05:39:48;11.65;;;5.70;;
74512;SDS011;62992;52.052;8.550;2022-12-07T05:42:32;11.65;;;5.30;;
74512;SDS011;62992;52.052;8.550;2022-12-07T05:45:16;12.07;;;4.80;;
74512;SDS011;62992;52.052;8.550;2022-12-07T05:48:00;12.68;;;5.25;;
74512;SDS011;62992;52.052;8.550;2022-12-07T05:50:47;8.65;;;4.40;;
74512;SDS011;62992;52.052;8.550;2022-12-07T05:53:32;13.05;;;5.20;;
74512;SDS011;62992;52.052;8.550;2022-12-07T05:56:16;7.57;;;4.25;;
74512;SDS011;62992;52.052;8.550;2022-12-07T05:59:00;12.52;;;4.70;;
74512;SDS011;62992;52.052;8.550;2022-12-07T06:02:04;8.68;;;4.43;;
74512;SDS011;62992;52.052;8.550;2022-12-07T06:04:50;9.60;;;4.82;;
74512;SDS011;62992;52.052;8.550;2022-12-07T06:07:34;14.70;;;4.68;;
74512;SDS011;62992;52.052;8.550;2022-12-07T06:10:18;12.98;;;4.95;;
74512;SDS011;62992;52.052;8.550;2022-12-07T06:15:41;8.80;;;4.70;;
74512;SDS011;62992;52.052;8.550;2022-12-07T06:18:25;10.50;;;4.40;;
74512;SDS011;62992;52.052;8.550;2022-12-07T06:21:10;8.85;;;4.18;;
74512;SDS011;62992;52.052;8.550;2022-12-07T06:23:54;11.02;;;5.40;;
74512;SDS011;62992;52.052;8.550;2022-12-07T06:26:39;8.93;;;4.10;;
74512;SDS011;62992;52.052;8.550;2022-12-07T06:29:23;9.60;;;4.63;;
74512;SDS011;62992;52.052;8.550;2022-12-07T06:32:08;9.80;;;4.57;;
74512;SDS011;62992;52.052;8.550;2022-12-07T06:34:52;12.65;;;4.50;;
74512;SDS011;62992;52.052;8.550;2022-12-07T06:37:36;12.27;;;5.07;;
74512;SDS011;62992;52.052;8.550;2022-12-07T06:40:20;10.95;;;4.78;;
74512;SDS011;62992;52.052;8.550;2022-12-07T06:43:05;9.32;;;4.30;;
74512;SDS011;62992;52.052;8.550;2022-12-07T06:45:49;8.00;;;4.88;;
74512;SDS011;62992;52.052;8.550;2022-12-07T06:48:33;8.05;;;4.88;;
74512;SDS011;62992;52.052;8.550;2022-12-07T06:51:17;10.38;;;4.55;;
74512;SDS011;62992;52.052;8.550;2022-12-07T06:54:00;9.35;;;3.72;;
74512;SDS011;62992;52.052;8.550;2022-12-07T06:56:44;9.60;;;3.95;;
74512;SDS011;62992;52.052;8.550;2022-12-07T06:59:28;8.95;;;4.05;;
74512;SDS011;62992;52.052;8.550;2022-12-07T07:02:12;8.90;;;3.65;;
74512;SDS011;62992;52.052;8.550;2022-12-07T07:04:57;9.43;;;4.03;;
74512;SDS011;62992;52.052;8.550;2022-12-07T07:07:41;7.80;;;3.70;;
74512;SDS011;62992;52.052;8.550;2022-12-07T07:10:24;8.77;;;4.13;;
74512;SDS011;62992;52.052;8.550;2022-12-07T07:13:08;9.50;;;3.95;;
74512;SDS011;62992;52.052;8.550;2022-12-07T07:15:53;10.55;;;3.38;;
74512;SDS011;62992;52.052;8.550;2022-12-07T07:18:38;7.65;;;3.72;;
74512;SDS011;62992;52.052;8.550;2022-12-07T07:21:22;9.25;;;4.13;;
74512;SDS011;62992;52.052;8.550;2022-12-07T07:24:06;7.95;;;3.78;;
74512;SDS011;62992;52.052;8.550;2022-12-07T07:26:50;7.07;;;4.22;;
74512;SDS011;62992;52.052;8.550;2022-12-07T07:29:34;11.00;;;3.80;;
74512;SDS011;62992;52.052;8.550;2022-12-07T07:32:18;8.73;;;4.13;;
74512;SDS011;62992;52.052;8.550;2022-12-07T07:35:03;9.10;;;4.10;;
74512;SDS011;62992;52.052;8.550;2022-12-07T07:37:48;11.55;;;4.82;;
74512;SDS011;62992;52.052;8.550;2022-12-07T07:40:32;11.07;;;4.43;;
74512;SDS011;62992;52.052;8.550;2022-12-07T07:43:17;12.13;;;3.67;;
74512;SDS011;62992;52.052;8.550;2022-12-07T07:46:01;12.48;;;4.07;;
74512;SDS011;62992;52.052;8.550;2022-12-07T07:48:45;8.18;;;4.70;;
74512;SDS011;62992;52.052;8.550;2022-12-07T07:51:29;11.68;;;4.10;;
74512;SDS011;62992;52.052;8.550;2022-12-07T07:54:13;7.50;;;4.22;;
74512;SDS011;62992;52.052;8.550;2022-12-07T07:56:57;8.77;;;3.58;;
74512;SDS011;62992;52.052;8.550;2022-12-07T07:59:41;7.32;;;3.47;;
74512;SDS011;62992;52.052;8.550;2022-12-07T08:02:25;8.18;;;3.92;;
74512;SDS011;62992;52.052;8.550;2022-12-07T08:05:10;6.20;;;3.33;;
74512;SDS011;62992;52.052;8.550;2022-12-07T08:07:56;10.98;;;3.83;;
74512;SDS011;62992;52.052;8.550;2022-12-07T08:10:41;6.88;;;3.65;;
74512;SDS011;62992;52.052;8.550;2022-12-07T08:13:25;8.65;;;3.90;;
74512;SDS011;62992;52.052;8.550;2022-12-07T08:16:10;9.57;;;4.80;;
74512;SDS011;62992;52.052;8.550;2022-12-07T08:18:54;10.77;;;4.50;;
74512;SDS011;62992;52.052;8.550;2022-12-07T08:21:40;8.77;;;4.27;;
74512;SDS011;62992;52.052;8.550;2022-12-07T08:24:24;6.35;;;3.25;;
74512;SDS011;62992;52.052;8.550;2022-12-07T08:27:08;13.48;;;4.90;;
74512;SDS011;62992;52.052;8.550;2022-12-07T08:29:53;12.82;;;3.75;;
74512;SDS011;62992;52.052;8.550;2022-12-07T08:32:37;6.38;;;3.72;;
74512;SDS011;62992;52.052;8.550;2022-12-07T08:35:21;4.90;;;3.08;;
74512;SDS011;62992;52.052;8.550;2022-12-07T08:38:05;8.40;;;3.50;;
74512;SDS011;62992;52.052;8.550;2022-12-07T08:40:55;7.57;;;3.10;;
74512;SDS011;62992;52.052;8.550;2022-12-07T08:43:41;5.10;;;2.85;;
74512;SDS011;62992;52.052;8.550;2022-12-07T08:46:27;6.68;;;3.17;;
74512;SDS011;62992;52.052;8.550;2022-12-07T08:49:21;7.60;;;2.60;;
74512;SDS011;62992;52.052;8.550;2022-12-07T08:52:11;6.60;;;2.25;;
74512;SDS011;62992;52.052;8.550;2022-12-07T08:54:56;6.40;;;2.42;;
74512;SDS011;62992;52.052;8.550;2022-12-07T08:57:41;7.63;;;2.72;;
74512;SDS011;62992;52.052;8.550;2022-12-07T09:00:26;6.70;;;2.30;;
74512;SDS011;62992;52.052;8.550;2022-12-07T09:03:11;7.63;;;2.45;;
74512;SDS011;62992;52.052;8.550;2022-12-07T09:05:55;7.07;;;2.40;;
74512;SDS011;62992;52.052;8.550;2022-12-07T09:08:40;6.32;;;2.47;;
74512;SDS011;62992;52.052;8.550;2022-12-07T09:11:29;8.10;;;2.35;;
74512;SDS011;62992;52.052;8.550;2022-12-07T09:14:13;6.13;;;1.80;;
74512;SDS011;62992;52.052;8.550;2022-12-07T09:17:10;5.05;;;2.08;;
74512;SDS011;62992;52.052;8.550;2022-12-07T09:19:56;4.40;;;1.98;;
74512;SDS011;62992;52.052;8.550;2022-12-07T09:22:40;5.28;;;2.25;;
74512;SDS011;62992;52.052;8.550;2022-12-07T09:25:24;4.72;;;1.85;;
74512;SDS011;62992;52.052;8.550;2022-12-07T09:28:08;6.20;;;1.77;;
74512;SDS011;62992;52.052;8.550;2022-12-07T09:30:52;7.18;;;2.33;;
74512;SDS011;62992;52.052;8.550;2022-12-07T09:33:36;6.32;;;2.00;;
74512;SDS011;62992;52.052;8.550;2022-12-07T09:36:20;4.45;;;1.90;;
74512;SDS011;62992;52.052;8.550;2022-12-07T09:39:04;5.68;;;2.25;;
74512;SDS011;62992;52.052;8.550;2022-12-07T09:41:49;5.30;;;2.38;;
74512;SDS011;62992;52.052;8.550;2022-12-07T09:44:34;6.15;;;2.00;;
74512;SDS011;62992;52.052;8.550;2022-12-07T09:47:19;7.97;;;2.05;;
74512;SDS011;62992;52.052;8.550;2022-12-07T09:50:04;7.47;;;2.30;;
74512;SDS011;62992;52.052;8.550;2022-12-07T09:53:00;5.20;;;1.88;;
74512;SDS011;62992;52.052;8.550;2022-12-07T09:55:51;5.47;;;1.88;;
74512;SDS011;62992;52.052;8.550;2022-12-07T09:58:36;5.03;;;1.75;;
74512;SDS011;62992;52.052;8.550;2022-12-07T10:01:21;5.40;;;1.85;;
74512;SDS011;62992;52.052;8.550;2022-12-07T10:04:16;7.35;;;1.75;;
74512;SDS011;62992;52.052;8.550;2022-12-07T10:07:05;6.97;;;1.70;;
74512;SDS011;62992;52.052;8.550;2022-12-07T10:09:49;5.85;;;2.00;;
74512;SDS011;62992;52.052;8.550;2022-12-07T10:12:50;9.85;;;1.70;;
74512;SDS011;62992;52.052;8.550;2022-12-07T10:21:22;6.95;;;1.60;;
74512;SDS011;62992;52.052;8.550;2022-12-07T10:26:55;5.97;;;1.58;;
74512;SDS011;62992;52.052;8.550;2022-12-07T10:29:40;9.00;;;1.70;;
74512;SDS011;62992;52.052;8.550;2022-12-07T10:32:35;6.05;;;1.77;;
74512;SDS011;62992;52.052;8.550;2022-12-07T10:38:07;6.47;;;1.38;;
74512;SDS011;62992;52.052;8.550;2022-12-07T10:41:04;6.65;;;1.13;;
74512;SDS011;62992;52.052;8.550;2022-12-07T10:43:54;3.20;;;1.33;;
74512;SDS011;62992;52.052;8.550;2022-12-07T10:49:32;8.25;;;1.52;;
74512;SDS011;62992;52.052;8.550;2022-12-07T10:59:23;4.22;;;1.48;;
74512;SDS011;62992;52.052;8.550;2022-12-07T11:02:32;3.78;;;1.20;;
74512;SDS011;62992;52.052;8.550;2022-12-07T11:11:46;5.95;;;1.00;;
74512;SDS011;62992;52.052;8.550;2022-12-07T11:14:58;5.70;;;1.70;;
74512;SDS011;62992;52.052;8.550;2022-12-07T11:18:06;6.60;;;2.08;;
74512;SDS011;62992;52.052;8.550;2022-12-07T11:21:20;2.53;;;1.08;;
74512;SDS011;62992;52.052;8.550;2022-12-07T11:24:17;6.00;;;1.10;;
74512;SDS011;62992;52.052;8.550;2022-12-07T11:27:39;6.50;;;1.40;;
74512;SDS011;62992;52.052;8.550;2022-12-07T11:30:36;9.48;;;2.05;;
74512;SDS011;62992;52.052;8.550;2022-12-07T11:33:45;3.58;;;1.00;;
74512;SDS011;62992;52.052;8.550;2022-12-07T11:36:52;7.35;;;1.60;;
74512;SDS011;62992;52.052;8.550;2022-12-07T11:39:39;3.75;;;1.20;;
74512;SDS011;62992;52.052;8.550;2022-12-07T11:42:36;4.93;;;1.30;;
74512;SDS011;62992;52.052;8.550;2022-12-07T11:45:26;3.33;;;1.00;;
74512;SDS011;62992;52.052;8.550;2022-12-07T11:48:17;7.85;;;1.33;;
74512;SDS011;62992;52.052;8.550;2022-12-07T11:51:09;4.53;;;1.05;;
74512;SDS011;62992;52.052;8.550;2022-12-07T11:53:56;3.78;;;1.33;;
74512;SDS011;62992;52.052;8.550;2022-12-07T11:56:47;6.10;;;1.23;;
74512;SDS011;62992;52.052;8.550;2022-12-07T11:59:38;6.50;;;1.45;;
74512;SDS011;62992;52.052;8.550;2022-12-07T12:02:41;2.05;;;0.70;;
74512;SDS011;62992;52.052;8.550;2022-12-07T12:05:47;4.90;;;1.20;;
74512;SDS011;62992;52.052;8.550;2022-12-07T12:08:35;4.22;;;1.08;;
74512;SDS011;62992;52.052;8.550;2022-12-07T12:11:34;7.53;;;1.35;;
74512;SDS011;62992;52.052;8.550;2022-12-07T12:20:40;6.25;;;0.90;;
74512;SDS011;62992;52.052;8.550;2022-12-07T12:23:44;3.17;;;0.90;;
74512;SDS011;62992;52.052;8.550;2022-12-07T12:26:33;5.55;;;1.08;;
74512;SDS011;62992;52.052;8.550;2022-12-07T12:29:21;2.70;;;1.00;;
74512;SDS011;62992;52.052;8.550;2022-12-07T12:32:22;3.22;;;1.00;;
74512;SDS011;62992;52.052;8.550;2022-12-07T12:35:34;3.97;;;1.38;;
74512;SDS011;62992;52.052;8.550;2022-12-07T12:38:31;2.85;;;1.80;;
74512;SDS011;62992;52.052;8.550;2022-12-07T12:50:47;6.78;;;1.25;;
74512;SDS011;62992;52.052;8.550;2022-12-07T12:53:31;9.02;;;1.50;;
74512;SDS011;62992;52.052;8.550;2022-12-07T12:56:28;5.72;;;1.15;;
74512;SDS011;62992;52.052;8.550;2022-12-07T12:59:25;4.50;;;1.15;;
74512;SDS011;62992;52.052;8.550;2022-12-07T13:02:36;6.45;;;1.48;;
74512;SDS011;62992;52.052;8.550;2022-12-07T13:05:25;4.88;;;1.10;;
74512;SDS011;62992;52.052;8.550;2022-12-07T13:08:20;3.55;;;1.00;;
74512;SDS011;62992;52.052;8.550;2022-12-07T13:26:39;6.88;;;1.40;;
74512;SDS011;62992;52.052;8.550;2022-12-07T13:29:25;5.55;;;1.40;;
74512;SDS011;62992;52.052;8.550;2022-12-07T13:32:17;5.60;;;1.23;;
74512;SDS011;62992;52.052;8.550;2022-12-07T13:38:24;5.93;;;1.65;;
74512;SDS011;62992;52.052;8.550;2022-12-07T13:41:15;8.02;;;1.42;;
74512;SDS011;62992;52.052;8.550;2022-12-07T13:44:14;8.25;;;1.38;;
74512;SDS011;62992;52.052;8.550;2022-12-07T13:49:59;2.33;;;1.05;;
74512;SDS011;62992;52.052;8.550;2022-12-07T13:52:43;4.47;;;1.55;;
74512;SDS011;62992;52.052;8.550;2022-12-07T13:55:29;3.08;;;1.17;;
74512;SDS011;62992;52.052;8.550;2022-12-07T13:58:13;7.10;;;1.65;;
74512;SDS011;62992;52.052;8.550;2022-12-07T14:00:59;3.40;;;1.10;;
74512;SDS011;62992;52.052;8.550;2022-12-07T14:03:43;6.63;;;1.42;;
74512;SDS011;62992;52.052;8.550;2022-12-07T14:06:27;8.25;;;1.23;;
74512;SDS011;62992;52.052;8.550;2022-12-07T14:12:05;3.92;;;1.20;;
74512;SDS011;62992;52.052;8.550;2022-12-07T14:14:50;6.75;;;1.10;;
74512;SDS011;62992;52.052;8.550;2022-12-07T14:17:35;5.45;;;1.05;;
74512;SDS011;62992;52.052;8.550;2022-12-07T14:20:29;6.55;;;1.50;;
74512;SDS011;62992;52.052;8.550;2022-12-07T14:23:24;5.32;;;1.45;;
74512;SDS011;62992;52.052;8.550;2022-12-07T14:26:14;5.32;;;1.17;;
74512;SDS011;62992;52.052;8.550;2022-12-07T14:29:21;9.15;;;1.58;;
74512;SDS011;62992;52.052;8.550;2022-12-07T14:32:25;8.85;;;1.58;;
74512;SDS011;62992;52.052;8.550;2022-12-07T14:35:15;6.25;;;1.20;;
74512;SDS011;62992;52.052;8.550;2022-12-07T14:38:01;6.18;;;1.98;;
74512;SDS011;62992;52.052;8.550;2022-12-07T14:40:45;5.30;;;1.50;;
74512;SDS011;62992;52.052;8.550;2022-12-07T14:43:29;6.18;;;1.05;;
74512;SDS011;62992;52.052;8.550;2022-12-07T14:46:13;5.00;;;1.52;;
74512;SDS011;62992;52.052;8.550;2022-12-07T14:48:57;11.57;;;1.88;;
74512;SDS011;62992;52.052;8.550;2022-12-07T14:51:42;4.45;;;1.40;;
74512;SDS011;62992;52.052;8.550;2022-12-07T14:54:29;4.72;;;1.42;;
74512;SDS011;62992;52.052;8.550;2022-12-07T14:57:15;4.43;;;1.52;;
74512;SDS011;62992;52.052;8.550;2022-12-07T14:59:59;7.25;;;1.55;;
74512;SDS011;62992;52.052;8.550;2022-12-07T15:02:44;4.53;;;1.42;;
74512;SDS011;62992;52.052;8.550;2022-12-07T15:05:30;5.03;;;1.20;;
74512;SDS011;62992;52.052;8.550;2022-12-07T15:08:14;4.55;;;1.40;;
74512;SDS011;62992;52.052;8.550;2022-12-07T15:10:58;4.35;;;1.90;;
74512;SDS011;62992;52.052;8.550;2022-12-07T15:13:42;5.32;;;1.30;;
74512;SDS011;62992;52.052;8.550;2022-12-07T15:16:45;3.67;;;1.20;;
74512;SDS011;62992;52.052;8.550;2022-12-07T15:19:29;7.63;;;1.60;;
74512;SDS011;62992;52.052;8.550;2022-12-07T15:22:13;4.40;;;1.52;;
74512;SDS011;62992;52.052;8.550;2022-12-07T15:24:57;4.13;;;1.27;;
74512;SDS011;62992;52.052;8.550;2022-12-07T15:27:41;6.10;;;1.50;;
74512;SDS011;62992;52.052;8.550;2022-12-07T15:30:25;5.20;;;1.50;;
74512;SDS011;62992;52.052;8.550;2022-12-07T15:33:10;3.22;;;1.30;;
74512;SDS011;62992;52.052;8.550;2022-12-07T15:35:55;9.70;;;1.50;;
74512;SDS011;62992;52.052;8.550;2022-12-07T15:38:39;9.07;;;1.48;;
74512;SDS011;62992;52.052;8.550;2022-12-07T15:41:23;7.13;;;1.35;;
74512;SDS011;62992;52.052;8.550;2022-12-07T15:44:09;8.73;;;1.42;;
74512;SDS011;62992;52.052;8.550;2022-12-07T15:47:14;11.75;;;1.52;;
74512;SDS011;62992;52.052;8.550;2022-12-07T15:49:58;4.82;;;1.15;;
74512;SDS011;62992;52.052;8.550;2022-12-07T15:52:42;3.20;;;1.02;;
74512;SDS011;62992;52.052;8.550;2022-12-07T15:55:26;10.32;;;1.67;;
74512;SDS011;62992;52.052;8.550;2022-12-07T15:58:10;7.40;;;1.58;;
74512;SDS011;62992;52.052;8.550;2022-12-07T16:00:54;4.68;;;1.23;;
74512;SDS011;62992;52.052;8.550;2022-12-07T16:03:38;9.45;;;1.50;;
74512;SDS011;62992;52.052;8.550;2022-12-07T16:06:22;3.45;;;0.70;;
74512;SDS011;62992;52.052;8.550;2022-12-07T16:09:06;2.75;;;1.48;;
74512;SDS011;62992;52.052;8.550;2022-12-07T16:11:51;3.40;;;0.70;;
74512;SDS011;62992;52.052;8.550;2022-12-07T16:14:36;1.80;;;0.63;;
74512;SDS011;62992;52.052;8.550;2022-12-07T16:17:21;1.33;;;0.70;;
74512;SDS011;62992;52.052;8.550;2022-12-07T16:20:05;3.28;;;0.65;;
74512;SDS011;62992;52.052;8.550;2022-12-07T16:22:53;1.07;;;0.60;;
74512;SDS011;62992;52.052;8.550;2022-12-07T16:25:37;2.58;;;0.70;;
74512;SDS011;62992;52.052;8.550;2022-12-07T16:28:21;2.53;;;0.90;;
74512;SDS011;62992;52.052;8.550;2022-12-07T16:31:07;2.53;;;1.13;;
74512;SDS011;62992;52.052;8.550;2022-12-07T16:33:54;1.75;;;0.80;;
74512;SDS011;62992;52.052;8.550;2022-12-07T16:36:40;2.25;;;1.10;;
74512;SDS011;62992;52.052;8.550;2022-12-07T16:39:24;1.00;;;0.85;;
74512;SDS011;62992;52.052;8.550;2022-12-07T16:42:08;2.28;;;1.52;;
74512;SDS011;62992;52.052;8.550;2022-12-07T16:44:52;2.90;;;2.10;;
74512;SDS011;62992;52.052;8.550;2022-12-07T16:47:37;4.95;;;2.80;;
74512;SDS011;62992;52.052;8.550;2022-12-07T16:50:21;4.63;;;3.40;;
74512;SDS011;62992;52.052;8.550;2022-12-07T16:53:05;6.82;;;3.25;;
74512;SDS011;62992;52.052;8.550;2022-12-07T16:55:50;4.88;;;3.05;;
74512;SDS011;62992;52.052;8.550;2022-12-07T16:58:34;6.50;;;3.60;;
74512;SDS011;62992;52.052;8.550;2022-12-07T17:01:19;8.25;;;3.60;;
74512;SDS011;62992;52.052;8.550;2022-12-07T17:04:07;6.40;;;2.72;;
74512;SDS011;62992;52.052;8.550;2022-12-07T17:06:52;6.30;;;2.50;;
74512;SDS011;62992;52.052;8.550;2022-12-07T17:09:36;6.32;;;2.70;;
74512;SDS011;62992;52.052;8.550;2022-12-07T17:12:20;6.40;;;3.15;;
74512;SDS011;62992;52.052;8.550;2022-12-07T17:15:05;8.60;;;2.20;;
74512;SDS011;62992;52.052;8.550;2022-12-07T17:18:01;6.00;;;2.58;;
74512;SDS011;62992;52.052;8.550;2022-12-07T17:20:45;3.78;;;2.13;;
74512;SDS011;62992;52.052;8.550;2022-12-07T17:23:29;8.05;;;2.97;;
74512;SDS011;62992;52.052;8.550;2022-12-07T17:26:19;6.17;;;2.87;;
74512;SDS011;62992;52.052;8.550;2022-12-07T17:29:06;9.55;;;3.00;;
74512;SDS011;62992;52.052;8.550;2022-12-07T17:31:54;7.10;;;2.47;;
74512;SDS011;62992;52.052;8.550;2022-12-07T17:34:38;7.75;;;2.85;;
74512;SDS011;62992;52.052;8.550;2022-12-07T17:37:22;7.45;;;3.15;;
74512;SDS011;62992;52.052;8.550;2022-12-07T17:40:06;7.80;;;3.38;;
74512;SDS011;62992;52.052;8.550;2022-12-07T17:42:51;6.95;;;2.63;;
74512;SDS011;62992;52.052;8.550;2022-12-07T17:45:35;9.20;;;3.25;;
74512;SDS011;62992;52.052;8.550;2022-12-07T17:48:20;8.77;;;3.45;;
74512;SDS011;62992;52.052;8.550;2022-12-07T17:51:04;8.15;;;2.92;;
74512;SDS011;62992;52.052;8.550;2022-12-07T17:54:08;6.80;;;3.15;;
74512;SDS011;62992;52.052;8.550;2022-12-07T17:56:53;7.75;;;3.35;;
74512;SDS011;62992;52.052;8.550;2022-12-07T17:59:37;9.20;;;3.10;;
74512;SDS011;62992;52.052;8.550;2022-12-07T18:02:21;8.57;;;3.03;;
74512;SDS011;62992;52.052;8.550;2022-12-07T18:05:05;7.25;;;2.50;;
74512;SDS011;62992;52.052;8.550;2022-12-07T18:07:50;6.00;;;2.93;;
74512;SDS011;62992;52.052;8.550;2022-12-07T18:10:35;6.90;;;2.60;;
74512;SDS011;62992;52.052;8.550;2022-12-07T18:13:19;11.30;;;3.00;;
74512;SDS011;62992;52.052;8.550;2022-12-07T18:16:19;7.28;;;2.50;;
74512;SDS011;62992;52.052;8.550;2022-12-07T18:19:06;4.05;;;2.00;;
74512;SDS011;62992;52.052;8.550;2022-12-07T18:21:56;6.97;;;2.47;;
74512;SDS011;62992;52.052;8.550;2022-12-07T18:24:40;6.32;;;2.80;;